createdAt,value
2023-03-24T00:01:52.561Z,11.77
2023-03-24T00:04:19.534Z,10.30
2023-03-24T00:06:49.112Z,11.65
2023-03-24T00:09:16.530Z,8.13
2023-03-24T00:11:43.465Z,9.20
2023-03-24T00:14:12.212Z,11.57
2023-03-24T00:16:42.643Z,11.70
2023-03-24T00:19:13.498Z,15.52
2023-03-24T00:21:41.996Z,12.73
2023-03-24T00:24:09.881Z,11.10
2023-03-24T00:26:38.314Z,13.10
2023-03-24T00:29:08.145Z,11.23
2023-03-24T00:31:39.947Z,10.60
2023-03-24T00:34:08.743Z,10.93
2023-03-24T00:36:36.407Z,11.70
2023-03-24T00:39:04.707Z,11.27
2023-03-24T00:41:31.648Z,12.38
2023-03-24T00:44:03.712Z,10.23
2023-03-24T00:46:30.822Z,12.52
2023-03-24T00:49:07.213Z,9.02
2023-03-24T00:51:39.566Z,9.65
2023-03-24T00:54:09.110Z,9.23
2023-03-24T00:56:40.140Z,9.67
2023-03-24T00:59:09.796Z,12.60
2023-03-24T01:01:38.907Z,12.43
2023-03-24T01:04:06.283Z,8.75
2023-03-24T01:06:36.609Z,8.98
2023-03-24T01:11:37.777Z,12.52
2023-03-24T01:14:04.947Z,9.85
2023-03-24T01:16:31.784Z,11.63
2023-03-24T01:18:59.428Z,10.70
2023-03-24T01:21:26.229Z,13.75
2023-03-24T01:23:53.966Z,12.13
2023-03-24T01:26:20.614Z,10.63
2023-03-24T01:28:47.288Z,8.48
2023-03-24T01:31:14.050Z,9.57
2023-03-24T01:33:41.198Z,8.38
2023-03-24T01:36:08.564Z,10.75
2023-03-24T01:38:35.908Z,9.20
2023-03-24T01:41:04.072Z,8.43
2023-03-24T01:43:32.813Z,11.32
2023-03-24T01:46:08.628Z,12.93
2023-03-24T01:48:43.598Z,12.57
2023-03-24T01:51:16.458Z,11.35
2023-03-24T01:53:57.383Z,10.25
2023-03-24T01:56:25.653Z,9.38
2023-03-24T01:58:56.939Z,11.60
2023-03-24T02:01:50.055Z,12.52
2023-03-24T02:04:46.164Z,12.13
2023-03-24T02:07:31.329Z,10.52
2023-03-24T02:09:58.170Z,11.68
2023-03-24T02:12:25.190Z,11.63
2023-03-24T02:14:53.246Z,10.63
2023-03-24T02:17:26.035Z,12.95
2023-03-24T02:20:31.889Z,12.20
2023-03-24T02:23:14.429Z,13.38
2023-03-24T02:25:53.382Z,11.35
2023-03-24T02:28:41.725Z,7.53
2023-03-24T02:31:33.318Z,13.68
2023-03-24T02:34:25.396Z,11.05
2023-03-24T02:37:04.974Z,12.48
2023-03-24T02:40:00.935Z,12.68
2023-03-24T02:42:42.765Z,12.80
2023-03-24T02:45:19.820Z,13.52
2023-03-24T02:48:19.122Z,12.70
2023-03-24T02:51:04.106Z,10.70
2023-03-24T02:53:39.979Z,13.60
2023-03-24T02:56:36.938Z,12.23
2023-03-24T02:59:44.357Z,15.02
2023-03-24T03:02:41.643Z,19.70
2023-03-24T03:05:13.864Z,12.30
2023-03-24T03:07:42.583Z,12.43
2023-03-24T03:10:20.925Z,14.85
2023-03-24T03:12:51.444Z,15.82
2023-03-24T03:15:28.384Z,16.85
2023-03-24T03:18:02.931Z,13.82
2023-03-24T03:20:34.712Z,15.50
2023-03-24T03:23:07.353Z,16.45
2023-03-24T03:25:38.622Z,14.98
2023-03-24T03:28:05.860Z,14.52
2023-03-24T03:30:37.651Z,14.45
2023-03-24T03:33:08.850Z,16.58
2023-03-24T03:35:43.351Z,15.32
2023-03-24T03:38:22.120Z,17.25
2023-03-24T03:41:00.580Z,14.95
2023-03-24T03:43:33.659Z,15.02
2023-03-24T03:46:01.459Z,16.83
2023-03-24T03:48:34.269Z,12.27
2023-03-24T03:51:13.043Z,14.30
2023-03-24T03:54:06.805Z,15.55
2023-03-24T03:56:35.410Z,17.75
2023-03-24T03:59:35.449Z,16.25
2023-03-24T04:02:21.584Z,14.15
2023-03-24T04:05:14.114Z,17.52
2023-03-24T04:08:15.740Z,13.05
2023-03-24T04:11:18.556Z,18.02
2023-03-24T04:14:43.704Z,13.25
2023-03-24T04:17:55.712Z,17.75
2023-03-24T04:21:07.552Z,13.02
2023-03-24T04:23:39.936Z,9.73
2023-03-24T04:26:29.088Z,10.60
2023-03-24T04:29:08.939Z,8.85
2023-03-24T04:31:41.468Z,10.27
2023-03-24T04:34:20.680Z,12.20
2023-03-24T04:37:12.705Z,7.85
2023-03-24T04:39:59.022Z,8.30
2023-03-24T04:42:32.535Z,6.07
2023-03-24T04:44:59.916Z,8.20
2023-03-24T04:47:48.776Z,7.18
2023-03-24T04:50:40.791Z,10.05
2023-03-24T04:53:13.311Z,8.27
2023-03-24T04:55:49.443Z,10.07
2023-03-24T04:58:22.981Z,9.63
2023-03-24T05:00:51.250Z,7.10
2023-03-24T05:03:18.753Z,8.45
2023-03-24T05:05:48.380Z,8.98
2023-03-24T05:08:16.675Z,8.73
2023-03-24T05:10:43.925Z,8.25
2023-03-24T05:13:11.994Z,9.85
2023-03-24T05:15:54.730Z,8.13
2023-03-24T05:18:37.144Z,12.50
2023-03-24T05:21:04.304Z,10.32
2023-03-24T05:23:31.094Z,8.65
2023-03-24T05:25:58.629Z,9.80
2023-03-24T05:28:28.279Z,10.50
2023-03-24T05:30:55.388Z,9.50
2023-03-24T05:33:55.561Z,9.20
2023-03-24T05:36:23.940Z,7.38
2023-03-24T05:38:55.140Z,7.65
2023-03-24T05:41:26.053Z,9.23
2023-03-24T05:43:53.087Z,7.40
2023-03-24T05:46:21.085Z,6.68
2023-03-24T05:48:49.675Z,8.50
2023-03-24T05:51:18.259Z,6.10
2023-03-24T05:53:47.764Z,5.10
2023-03-24T05:56:32.852Z,7.90
2023-03-24T05:59:08.331Z,5.00
2023-03-24T06:01:56.688Z,7.15
2023-03-24T06:04:30.486Z,5.90
2023-03-24T06:07:03.837Z,5.15
2023-03-24T06:09:32.936Z,6.53
2023-03-24T06:12:00.437Z,7.68
2023-03-24T06:14:29.285Z,10.17
2023-03-24T06:17:05.046Z,10.68
2023-03-24T06:19:33.723Z,11.32
2023-03-24T06:22:18.995Z,12.68
2023-03-24T06:24:47.102Z,13.27
2023-03-24T06:27:14.535Z,12.40
2023-03-24T06:29:44.118Z,15.07
2023-03-24T06:32:12.753Z,14.93
2023-03-24T06:34:41.933Z,14.88
2023-03-24T06:37:16.010Z,13.27
2023-03-24T06:39:43.236Z,13.95
2023-03-24T06:42:12.130Z,11.30
2023-03-24T06:44:39.044Z,10.45
2023-03-24T06:47:06.558Z,11.38
2023-03-24T06:49:34.825Z,11.57
2023-03-24T06:52:01.985Z,9.70
2023-03-24T06:54:29.876Z,9.60
2023-03-24T06:56:57.773Z,9.50
2023-03-24T06:59:28.270Z,9.75
2023-03-24T07:01:55.433Z,9.35
2023-03-24T07:04:26.166Z,9.73
2023-03-24T07:07:30.899Z,9.60
2023-03-24T07:10:14.055Z,7.30
2023-03-24T07:12:41.220Z,7.10
2023-03-24T07:15:09.271Z,7.25
2023-03-24T07:17:36.351Z,7.35
2023-03-24T07:20:29.480Z,9.75
2023-03-24T07:23:13.978Z,9.13
2023-03-24T07:25:57.798Z,7.60
2023-03-24T07:28:44.806Z,7.93
2023-03-24T07:31:12.252Z,9.20
2023-03-24T07:33:40.832Z,7.40
2023-03-24T07:36:08.636Z,7.82
2023-03-24T07:38:37.526Z,9.20
2023-03-24T07:41:08.770Z,8.98
2023-03-24T07:43:39.720Z,7.80
2023-03-24T07:46:26.785Z,8.57
2023-03-24T07:48:53.735Z,8.18
2023-03-24T07:51:20.808Z,6.85
2023-03-24T07:53:57.583Z,7.70
2023-03-24T07:56:38.591Z,7.35
2023-03-24T07:59:09.575Z,7.80
2023-03-24T08:01:55.941Z,8.70
2023-03-24T08:04:57.580Z,8.98
2023-03-24T08:07:43.920Z,11.50
2023-03-24T08:10:12.655Z,9.45
2023-03-24T08:12:41.020Z,9.48
2023-03-24T08:15:09.260Z,12.13
2023-03-24T08:17:36.804Z,10.13
2023-03-24T08:20:14.464Z,8.57
2023-03-24T08:22:42.990Z,10.80
2023-03-24T08:25:13.033Z,9.50
2023-03-24T08:27:40.259Z,9.23
2023-03-24T08:30:08.730Z,8.75
2023-03-24T08:32:35.981Z,7.35
2023-03-24T08:35:04.950Z,6.82
2023-03-24T08:37:32.111Z,4.78
2023-03-24T08:40:05.312Z,6.53
2023-03-24T08:42:32.422Z,5.95
2023-03-24T08:44:59.193Z,5.28
2023-03-24T08:47:26.295Z,5.68
2023-03-24T08:49:57.610Z,5.57
2023-03-24T08:52:24.939Z,6.40
2023-03-24T08:54:52.151Z,6.65
2023-03-24T08:57:18.899Z,9.30
2023-03-24T08:59:47.290Z,5.78
2023-03-24T09:02:14.908Z,6.88
2023-03-24T09:04:42.930Z,6.13
2023-03-24T09:07:10.465Z,7.72
2023-03-24T09:09:37.201Z,5.07
2023-03-24T09:12:04.092Z,6.88
2023-03-24T09:14:30.999Z,5.30
2023-03-24T09:16:57.709Z,6.78
2023-03-24T09:19:24.503Z,7.28
2023-03-24T09:21:51.245Z,1.58
2023-03-24T09:24:18.015Z,2.47
2023-03-24T10:22:18.417Z,3.65
2023-03-24T10:24:56.036Z,3.95
2023-03-24T10:27:36.716Z,2.90
2023-03-24T10:30:24.963Z,3.72
2023-03-24T10:32:51.847Z,4.45
2023-03-24T10:35:23.012Z,2.10
2023-03-24T10:37:51.226Z,6.20
2023-03-24T10:40:20.744Z,4.00
2023-03-24T10:42:48.993Z,4.82
2023-03-24T10:45:27.381Z,3.47
2023-03-24T10:47:57.700Z,1.83
2023-03-24T10:52:53.363Z,3.35
2023-03-24T10:55:23.632Z,2.33
2023-03-24T10:57:54.402Z,5.03
2023-03-24T11:00:29.980Z,5.75
2023-03-24T11:03:01.598Z,3.17
2023-03-24T11:05:31.238Z,5.32
2023-03-24T11:08:12.393Z,3.17
2023-03-24T11:10:39.503Z,3.70
2023-03-24T11:13:18.912Z,5.32
2023-03-24T11:16:05.000Z,2.80
2023-03-24T11:18:32.678Z,6.85
2023-03-24T11:21:04.025Z,3.67
2023-03-24T11:23:32.825Z,2.47
2023-03-24T11:26:07.466Z,2.03
2023-03-24T11:28:42.946Z,6.85
2023-03-24T11:31:11.178Z,4.97
2023-03-24T11:33:56.753Z,4.38
2023-03-24T11:36:38.645Z,5.03
2023-03-24T11:39:08.413Z,3.05
2023-03-24T11:41:38.232Z,2.75
2023-03-24T11:44:25.269Z,4.28
2023-03-24T11:46:58.830Z,4.00
2023-03-24T11:49:31.987Z,3.65
2023-03-24T11:51:59.041Z,4.22
2023-03-24T11:54:33.334Z,5.22
2023-03-24T11:57:09.217Z,3.05
2023-03-24T11:59:36.440Z,5.32
2023-03-24T12:02:17.044Z,5.50
2023-03-24T12:04:51.748Z,6.10
2023-03-24T12:07:40.843Z,3.38
2023-03-24T12:10:07.960Z,5.78
2023-03-24T12:12:46.930Z,4.22
2023-03-24T12:15:25.122Z,4.78
2023-03-24T12:18:34.466Z,2.92
2023-03-24T12:21:19.627Z,7.32
2023-03-24T12:23:59.679Z,5.57
2023-03-24T12:26:30.980Z,4.82
2023-03-24T12:29:10.362Z,6.68
2023-03-24T12:32:01.700Z,4.28
2023-03-24T12:34:43.087Z,5.13
2023-03-24T12:37:28.669Z,3.80
2023-03-24T12:40:10.820Z,6.10
2023-03-24T12:42:43.602Z,5.47
2023-03-24T12:45:40.730Z,3.92
2023-03-24T12:48:22.784Z,2.60
2023-03-24T12:51:07.468Z,6.22
2023-03-24T12:53:49.104Z,4.22
2023-03-24T12:56:21.517Z,4.32
2023-03-24T12:58:59.808Z,4.60
2023-03-24T13:01:47.212Z,5.60
2023-03-24T13:04:23.465Z,6.32
2023-03-24T13:06:58.463Z,3.50
2023-03-24T13:09:46.608Z,4.70
2023-03-24T13:12:20.241Z,6.43
2023-03-24T13:14:54.581Z,3.83
2023-03-24T13:17:26.967Z,7.28
2023-03-24T13:19:54.996Z,6.65
2023-03-24T13:22:25.472Z,4.68
2023-03-24T13:24:54.031Z,8.02
2023-03-24T13:27:31.249Z,6.10
2023-03-24T13:30:15.755Z,4.55
2023-03-24T13:32:53.093Z,5.50
2023-03-24T13:35:25.835Z,4.85
2023-03-24T13:37:57.369Z,3.75
2023-03-24T13:40:26.885Z,3.40
2023-03-24T13:43:12.412Z,4.70
2023-03-24T13:45:48.284Z,8.27
2023-03-24T13:48:15.507Z,6.57
2023-03-24T13:50:56.163Z,4.15
2023-03-24T13:53:31.925Z,6.63
2023-03-24T13:56:00.628Z,3.88
2023-03-24T13:59:06.844Z,4.10
2023-03-24T14:01:38.846Z,5.40
2023-03-24T14:04:26.040Z,3.65
2023-03-24T14:06:57.657Z,8.15
2023-03-24T14:09:29.906Z,4.10
2023-03-24T14:12:03.289Z,4.10
2023-03-24T14:14:33.053Z,5.05
2023-03-24T14:17:06.076Z,7.30
2023-03-24T14:19:40.536Z,2.95
2023-03-24T14:22:34.640Z,3.83
2023-03-24T14:25:03.782Z,4.55
2023-03-24T14:27:41.161Z,4.03
2023-03-24T14:30:11.267Z,6.22
2023-03-24T14:32:46.287Z,4.15
2023-03-24T14:35:29.978Z,3.67
2023-03-24T14:38:01.604Z,4.15
2023-03-24T14:40:39.508Z,5.50
2023-03-24T14:43:26.418Z,5.80
2023-03-24T14:45:56.465Z,6.30
2023-03-24T14:48:43.239Z,7.05
2023-03-24T14:51:21.493Z,3.65
2023-03-24T14:53:48.718Z,4.50
2023-03-24T14:56:17.276Z,6.10
2023-03-24T14:58:45.331Z,3.53
2023-03-24T15:01:12.464Z,5.15
2023-03-24T15:03:52.428Z,6.15
2023-03-24T15:06:23.240Z,3.28
2023-03-24T15:08:57.263Z,3.80
2023-03-24T15:11:27.206Z,8.70
2023-03-24T15:13:57.589Z,3.47
2023-03-24T15:19:23.712Z,6.05
2023-03-24T15:21:56.824Z,7.97
2023-03-24T15:24:23.527Z,4.72
2023-03-24T15:26:53.904Z,6.07
2023-03-24T15:31:47.824Z,4.47
2023-03-24T15:34:26.973Z,7.55
2023-03-24T15:36:55.623Z,7.05
2023-03-24T15:39:27.444Z,4.65
2023-03-24T15:41:54.319Z,4.55
2023-03-24T15:44:31.203Z,4.88
2023-03-24T15:46:59.104Z,5.13
2023-03-24T15:49:30.449Z,5.00
2023-03-24T15:51:58.822Z,5.30
2023-03-24T15:54:30.953Z,3.88
2023-03-24T15:57:03.628Z,5.47
2023-03-24T15:59:36.910Z,7.53
2023-03-24T16:02:07.596Z,5.93
2023-03-24T16:04:34.385Z,2.97
2023-03-24T16:07:01.273Z,4.57
2023-03-24T16:09:40.872Z,4.38
2023-03-24T16:12:10.787Z,6.50
2023-03-24T16:14:38.901Z,3.83
2023-03-24T16:17:06.620Z,8.27
2023-03-24T16:19:33.539Z,3.72
2023-03-24T16:22:00.532Z,6.15
2023-03-24T16:24:28.066Z,4.43
2023-03-24T16:26:55.656Z,5.40
2023-03-24T16:29:24.058Z,7.20
2023-03-24T16:31:53.409Z,7.72
2023-03-24T16:34:21.497Z,5.53
2023-03-24T16:36:49.744Z,4.55
2023-03-24T16:39:23.686Z,4.43
2023-03-24T16:41:51.142Z,4.15
2023-03-24T16:44:18.793Z,4.30
2023-03-24T16:46:47.302Z,3.67
2023-03-24T16:49:16.468Z,5.03
2023-03-24T16:51:44.744Z,4.75
2023-03-24T16:54:11.741Z,7.57
2023-03-24T16:56:38.561Z,5.55
2023-03-24T16:59:05.811Z,3.78
2023-03-24T17:01:37.205Z,5.88
2023-03-24T17:04:10.948Z,6.82
2023-03-24T17:06:40.593Z,6.90
2023-03-24T17:09:08.507Z,3.42
2023-03-24T17:11:41.392Z,4.18
2023-03-24T17:14:12.093Z,4.03
2023-03-24T17:16:44.399Z,6.20
2023-03-24T17:19:14.132Z,4.95
2023-03-24T17:22:01.862Z,8.40
2023-03-24T17:24:30.308Z,6.47
2023-03-24T17:26:57.222Z,8.27
2023-03-24T17:29:24.313Z,5.25
2023-03-24T17:31:51.179Z,8.77
2023-03-24T17:36:49.837Z,6.40
2023-03-24T17:39:18.342Z,7.10
2023-03-24T17:41:45.626Z,5.85
2023-03-24T17:44:12.484Z,7.50
2023-03-24T17:46:39.688Z,4.97
2023-03-24T17:49:06.794Z,6.03
2023-03-24T17:51:33.823Z,7.07
2023-03-24T17:54:00.768Z,6.95
2023-03-24T17:56:27.866Z,5.78
2023-03-24T17:58:56.387Z,7.20
2023-03-24T18:01:24.160Z,5.18
2023-03-24T18:03:51.285Z,9.00
2023-03-24T18:06:18.210Z,4.75
2023-03-24T18:08:44.946Z,5.32
2023-03-24T18:11:14.430Z,7.68
2023-03-24T18:13:42.113Z,3.53
2023-03-24T18:16:20.570Z,6.10
2023-03-24T18:18:49.630Z,7.80
2023-03-24T18:21:17.031Z,3.55
2023-03-24T18:23:44.006Z,2.78
2023-03-24T18:26:11.152Z,1.27
2023-03-24T18:28:39.021Z,3.50
2023-03-24T18:31:15.173Z,1.42
2023-03-24T18:33:45.932Z,2.58
2023-03-24T18:36:16.450Z,0.80
2023-03-24T18:38:43.650Z,2.50
2023-03-24T18:41:12.946Z,1.20
2023-03-24T18:43:45.699Z,2.90
2023-03-24T18:46:14.015Z,3.97
2023-03-24T18:48:42.604Z,2.30
2023-03-24T18:51:10.338Z,3.55
2023-03-24T18:53:37.363Z,2.03
2023-03-24T18:56:05.969Z,1.98
2023-03-24T18:58:33.810Z,3.38
2023-03-24T19:01:06.800Z,1.85
2023-03-24T19:03:35.602Z,2.80
2023-03-24T19:06:06.242Z,2.03
2023-03-24T19:08:34.576Z,2.30
2023-03-24T19:11:01.661Z,3.75
2023-03-24T19:13:28.870Z,3.30
2023-03-24T19:15:56.028Z,3.17
2023-03-24T19:18:23.471Z,6.35
2023-03-24T19:20:54.469Z,9.10
2023-03-24T19:23:21.862Z,1.35
2023-03-24T19:25:49.266Z,4.72
2023-03-24T19:28:16.569Z,2.80
2023-03-24T19:30:43.581Z,7.03
2023-03-24T19:33:11.435Z,4.03
2023-03-24T19:35:39.791Z,8.02
2023-03-24T19:38:06.719Z,4.45
2023-03-24T19:40:33.743Z,8.07
2023-03-24T19:43:01.092Z,6.35
2023-03-24T19:45:27.991Z,4.78
2023-03-24T19:47:56.018Z,6.03
2023-03-24T19:50:23.145Z,5.00
2023-03-24T19:52:50.173Z,5.28
2023-03-24T19:55:17.087Z,5.40
2023-03-24T19:57:43.827Z,10.38
2023-03-24T20:00:13.842Z,6.63
2023-03-24T20:02:41.531Z,8.73
2023-03-24T20:05:09.589Z,4.95
2023-03-24T20:07:36.926Z,3.78
2023-03-24T20:10:04.326Z,4.10
2023-03-24T20:12:32.135Z,3.78
2023-03-24T20:14:59.038Z,5.50
2023-03-24T20:17:29.514Z,8.38
2023-03-24T20:19:56.667Z,5.82
2023-03-24T20:22:23.436Z,5.82
2023-03-24T20:24:50.281Z,5.45
2023-03-24T20:27:17.061Z,6.38
2023-03-24T20:29:45.784Z,4.35
2023-03-24T20:32:12.971Z,5.53
2023-03-24T20:34:40.099Z,3.63
2023-03-24T20:37:07.303Z,5.53
2023-03-24T20:39:35.387Z,4.15
2023-03-24T20:42:02.485Z,5.82
2023-03-24T20:44:29.489Z,3.55
2023-03-24T20:46:57.229Z,3.25
2023-03-24T20:49:25.920Z,5.00
2023-03-24T20:51:53.395Z,3.55
2023-03-24T20:54:21.346Z,3.60
2023-03-24T20:56:52.437Z,3.42
2023-03-24T20:59:19.305Z,8.57
2023-03-24T21:01:48.444Z,6.35
2023-03-24T21:04:17.703Z,3.85
2023-03-24T21:06:44.842Z,5.57
2023-03-24T21:09:12.177Z,9.02
2023-03-24T21:11:39.061Z,3.35
2023-03-24T21:14:06.091Z,2.38
2023-03-24T21:16:37.543Z,5.80
2023-03-24T21:19:04.660Z,3.58
2023-03-24T21:21:32.292Z,6.13
2023-03-24T21:24:00.637Z,4.45
2023-03-24T21:26:27.912Z,9.52
2023-03-24T21:28:54.764Z,4.68
2023-03-24T21:31:26.647Z,5.32
2023-03-24T21:33:54.159Z,4.22
2023-03-24T21:36:22.041Z,7.97
2023-03-24T21:38:49.901Z,6.47
2023-03-24T21:41:17.717Z,5.50
2023-03-24T21:43:51.311Z,5.43
2023-03-24T21:46:21.456Z,5.97
2023-03-24T21:48:52.513Z,7.38
2023-03-24T21:51:21.390Z,3.70
2023-03-24T21:53:48.235Z,7.13
2023-03-24T21:56:15.124Z,3.80
2023-03-24T21:58:42.303Z,5.35
2023-03-24T22:01:09.700Z,5.75
2023-03-24T22:03:37.262Z,7.75
2023-03-24T22:06:05.569Z,6.20
2023-03-24T22:08:32.528Z,5.45
2023-03-24T22:11:00.953Z,3.45
2023-03-24T22:13:28.748Z,3.10
2023-03-24T22:15:56.819Z,7.00
2023-03-24T22:18:24.804Z,2.63
2023-03-24T22:21:04.096Z,4.65
2023-03-24T22:23:36.059Z,3.30
2023-03-24T22:26:14.404Z,2.17
2023-03-24T22:28:42.183Z,5.45
2023-03-24T22:31:14.625Z,1.27
2023-03-24T22:33:41.937Z,1.85
2023-03-24T22:36:09.520Z,2.40
2023-03-24T22:38:36.771Z,2.47
2023-03-24T22:41:06.358Z,1.45
2023-03-24T22:43:35.705Z,2.53
2023-03-24T22:46:03.054Z,1.20
2023-03-24T22:48:30.007Z,2.00
2023-03-24T22:50:56.941Z,3.42
2023-03-24T22:53:23.803Z,3.42
2023-03-24T22:55:51.197Z,3.10
2023-03-24T22:58:18.177Z,1.02
2023-03-24T23:00:47.332Z,1.75
2023-03-24T23:03:14.112Z,2.70
2023-03-24T23:05:42.262Z,4.43
2023-03-24T23:08:09.712Z,1.60
2023-03-24T23:10:37.068Z,2.03
2023-03-24T23:13:04.144Z,2.22
2023-03-24T23:15:31.877Z,3.42
2023-03-24T23:17:59.902Z,5.10
2023-03-24T23:20:29.813Z,6.22
2023-03-24T23:22:56.891Z,6.57
2023-03-24T23:25:23.833Z,4.03
2023-03-24T23:27:50.787Z,3.38
2023-03-24T23:30:18.119Z,5.20
2023-03-24T23:32:46.970Z,4.93
2023-03-24T23:35:14.718Z,2.33
2023-03-24T23:37:41.783Z,5.30
2023-03-24T23:40:15.788Z,2.65
2023-03-24T23:42:45.362Z,4.10
2023-03-24T23:45:14.860Z,10.07
2023-03-24T23:47:42.870Z,4.90
2023-03-24T23:50:10.548Z,4.40
2023-03-24T23:52:37.682Z,6.80
2023-03-24T23:55:04.828Z,3.85
2023-03-24T23:57:31.589Z,5.80
2023-03-24T23:59:59.925Z,6.05
